Dragonera — 9HA2475 — position and weather

sailwx.info

Track history (hours):
 
Tides and Currents Weather Stations Pressure Air Temp Water Temp Dewpoint Dewpoint Depression Visibility Wind Speed Wind Dir Waves Ship Positions

Dragonera

Last reported at 2017-Oct-20 14:17 UTC. Time now 2017-Oct-23 02:54 UTC.
Position N 55°46' E 016°25'.

Length 180 m; draft 6.6 m.

Type: Cargo ship. MMSI: 248698000.

Date/timePositionNaut miles runAvg speedWind from/ knotsBaromVisibWave heightAir tempDewpointWater temp
2017-Oct-20 14:17N 55°46' E 016°25'1013.3
2017-Oct-20 13:31N 55°43' E 016°07'713.3
2017-Oct-20 13:00N 55°42' E 015°56'713.2
2017-Oct-20 12:31N 55°40' E 015°45'713.3
2017-Oct-20 12:00N 55°38' E 015°33'713.2
2017-Oct-20 11:31N 55°37' E 015°22'713.1
2017-Oct-20 11:00N 55°34' E 015°11'713.1
2017-Oct-20 10:29N 55°31' E 015°01'813.5
2017-Oct-20 09:52N 55°27' E 014°47'513.5
2017-Oct-20 09:30N 55°25' E 014°40'713.4
2017-Oct-20 09:01N 55°20' E 014°33'713.8
2017-Oct-20 08:29N 55°14' E 014°26'613.0
2017-Oct-20 08:00N 55°10' E 014°17'713.1
2017-Oct-20 07:26N 55°09' E 014°04'812.6
2017-Oct-20 06:46N 55°10' E 013°49'3112.6
2017-Oct-20 04:17N 55°14' E 012°54'412.8
2017-Oct-20 03:59N 55°15' E 012°48'612.5
2017-Oct-20 03:30N 55°18' E 012°39'511.0
2017-Oct-20 03:01N 55°23' E 012°39'612.2
2017-Oct-20 02:30N 55°29' E 012°42'5 9.3
2017-Oct-20 02:00N 55°33' E 012°47'5 9.1
2017-Oct-20 01:30N 55°36' E 012°52'5 9.1
2017-Oct-20 01:00N 55°40' E 012°56'612.2
2017-Oct-20 00:30N 55°45' E 012°50'611.5
2017-Oct-20 00:00N 55°50' E 012°45'611.6
2017-Oct-19 23:30N 55°56' E 012°43'611.7
2017-Oct-19 23:00N 56°02' E 012°39'4 9.0
2017-Oct-19 22:31N 56°05' E 012°35'4 8.3
2017-Oct-19 22:00N 56°08' E 012°29'4 6.8
2017-Oct-19 21:27N 56°10' E 012°23'7111.7
2017-Oct-19 15:21N 57°15' E 011°33'513.0
2017-Oct-19 15:00N 57°20' E 011°30'712.8
2017-Oct-19 14:29N 57°26' E 011°26'612.4
2017-Oct-19 14:00N 57°31' E 011°20'612.5
2017-Oct-19 13:29N 57°36' E 011°13'712.9
2017-Oct-19 12:59N 57°42' E 011°06'613.0
2017-Oct-19 12:30N 57°47' E 010°59'613.1
2017-Oct-19 12:00N 57°51' E 010°50'713.1
2017-Oct-19 11:30N 57°55' E 010°40'713.1
2017-Oct-19 11:00N 57°55' E 010°28'3513.2
2017-Oct-19 08:22N 57°48' E 009°23'513.4
2017-Oct-19 07:59N 57°47' E 009°14'713.5
2017-Oct-19 07:29N 57°43' E 009°03'  
2017-Oct-16 04:29N 55°48' W 006°59'612.0
2017-Oct-16 04:00N 55°43' W 006°53'612.1
2017-Oct-16 03:30N 55°38' W 006°48'612.8
2017-Oct-16 03:00N 55°34' W 006°39'713.9
2017-Oct-16 02:30N 55°30' W 006°28'714.9
2017-Oct-16 02:01N 55°27' W 006°17'815.3
2017-Oct-16 01:31N 55°25' W 006°04'816.3
2017-Oct-16 01:01N 55°18' W 005°55'816.3
2017-Oct-16 00:31N 55°11' W 005°49'815.8
2017-Oct-16 00:01N 55°04' W 005°43'1015.5
2017-Oct-15 23:24N 54°55' W 005°38'615.5
2017-Oct-15 23:01N 54°49' W 005°34'713.4
2017-Oct-15 22:30N 54°43' W 005°39'510.6
2017-Oct-15 22:00N 54°41' W 005°48'5 9.1
2017-Oct-15 21:27N 54°37' W 005°54'0 0.9
2017-Oct-15 20:59N 54°37' W 005°54'0 0.0
2017-Oct-15 20:08N 54°37' W 005°54'0 0.0
2017-Oct-15 19:59N 54°37' W 005°54'0 0.0
2017-Oct-15 19:14N 54°37' W 005°54'0 0.0
2017-Oct-15 18:05N 54°37' W 005°54'0 0.0
2017-Oct-15 17:17N 54°37' W 005°54'0 0.0
2017-Oct-15 16:47N 54°37' W 005°54'0 0.0
2017-Oct-15 16:23N 54°37' W 005°54'0 0.0
2017-Oct-15 15:59N 54°37' W 005°54'0 0.0
2017-Oct-15 15:29N 54°37' W 005°54'0 0.0
2017-Oct-15 14:47N 54°37' W 005°54'0 0.0
2017-Oct-15 13:59N 54°37' W 005°54'0 0.0
2017-Oct-15 13:17N 54°37' W 005°54'0 0.0
2017-Oct-15 12:59N 54°37' W 005°54'0 0.0
2017-Oct-15 12:05N 54°37' W 005°54'0 0.0
2017-Oct-15 11:59N 54°37' W 005°54'0 0.0
2017-Oct-15 11:29N 54°37' W 005°54'0 0.0
2017-Oct-15 10:53N 54°37' W 005°54'0 0.0
2017-Oct-15 10:23N 54°37' W 005°54'0 0.0
2017-Oct-15 09:35N 54°37' W 005°54'0 0.0
2017-Oct-15 09:29N 54°37' W 005°54'0 0.0
2017-Oct-15 08:11N 54°37' W 005°54'0 0.0
2017-Oct-15 07:56N 54°37' W 005°54'0 0.0
2017-Oct-15 06:44N 54°37' W 005°54'0 0.0
2017-Oct-15 06:29N 54°37' W 005°54'0 0.0
2017-Oct-15 05:23N 54°37' W 005°54'0 0.0
2017-Oct-15 04:53N 54°37' W 005°54'0 0.0
2017-Oct-15 04:29N 54°37' W 005°54'0 0.0
2017-Oct-15 02:23N 54°37' W 005°54'0 0.0
2017-Oct-15 01:53N 54°37' W 005°54'0 0.0
2017-Oct-14 23:17N 54°37' W 005°54'0 0.0
2017-Oct-14 22:47N 54°37' W 005°54'0 0.0
2017-Oct-14 21:47N 54°37' W 005°54'0 0.0
2017-Oct-14 21:20N 54°37' W 005°54'0 0.0
2017-Oct-14 17:05N 54°37' W 005°54'0 0.0
2017-Oct-14 06:47N 54°37' W 005°54'0 0.0
2017-Oct-14 06:29N 54°37' W 005°54'0 0.0
2017-Oct-14 04:05N 54°37' W 005°54'0 0.0
2017-Oct-14 03:59N 54°37' W 005°54'0 0.0
2017-Oct-13 15:23N 54°37' W 005°54'0 0.0
2017-Oct-13 13:08N 54°37' W 005°54'0 0.0
2017-Oct-13 12:38N 54°37' W 005°54'0 0.0
2017-Oct-13 12:02N 54°37' W 005°54'0 0.0
2017-Oct-13 11:32N 54°37' W 005°54'0 0.0
2017-Oct-13 08:17N 54°37' W 005°54'0 0.0
2017-Oct-13 06:11N 54°37' W 005°54'0 0.0
2017-Oct-13 04:35N 54°37' W 005°54'0 0.0
2017-Oct-13 04:08N 54°37' W 005°54'0 0.0
2017-Oct-13 03:47N 54°37' W 005°54'0 0.0
2017-Oct-13 03:17N 54°37' W 005°54'0 0.0
2017-Oct-13 02:41N 54°37' W 005°54'0 0.0
2017-Oct-13 02:23N 54°37' W 005°54'0 0.0
2017-Oct-12 22:08N 54°37' W 005°54'0 0.0
2017-Oct-12 21:11N 54°37' W 005°54'0 0.0
2017-Oct-12 20:05N 54°37' W 005°54'0 0.1
2017-Oct-12 19:59N 54°37' W 005°54'0 0.0
2017-Oct-12 16:05N 54°37' W 005°54'0 0.0
2017-Oct-12 10:08N 54°37' W 005°54'0 0.0
2017-Oct-11 23:11N 54°37' W 005°54'144 6.2
2017-Oct-11 00:00N 52°13' W 005°58'715.0
2017-Oct-10 23:30N 52°06' W 006°04'815.5
2017-Oct-10 23:00N 52°01' W 006°13'714.6
2017-Oct-10 22:30N 51°55' W 006°20'  
Track history (hours):
 
Tides and Currents Weather Stations Pressure Air Temp Water Temp Dewpoint Dewpoint Depression Visibility Wind Speed Wind Dir Waves Ship Positions

Dragonera

Last reported at 2017-Oct-20 14:17 UTC. Time now 2017-Oct-23 02:54 UTC.
Position N 55°46' E 016°25'.

Length 180 m; draft 6.6 m.

Type: Cargo ship. MMSI: 248698000.

Date/timePositionNaut miles runAvg speedWind from/ knotsBaromVisibWave heightAir tempDewpointWater temp
2017-Oct-20 14:17N 55°46' E 016°25'1013.3
2017-Oct-20 13:31N 55°43' E 016°07'713.3
2017-Oct-20 13:00N 55°42' E 015°56'713.2
2017-Oct-20 12:31N 55°40' E 015°45'713.3
2017-Oct-20 12:00N 55°38' E 015°33'713.2
2017-Oct-20 11:31N 55°37' E 015°22'713.1
2017-Oct-20 11:00N 55°34' E 015°11'713.1
2017-Oct-20 10:29N 55°31' E 015°01'813.5
2017-Oct-20 09:52N 55°27' E 014°47'513.5
2017-Oct-20 09:30N 55°25' E 014°40'713.4
2017-Oct-20 09:01N 55°20' E 014°33'713.8
2017-Oct-20 08:29N 55°14' E 014°26'613.0
2017-Oct-20 08:00N 55°10' E 014°17'713.1
2017-Oct-20 07:26N 55°09' E 014°04'812.6
2017-Oct-20 06:46N 55°10' E 013°49'3112.6
2017-Oct-20 04:17N 55°14' E 012°54'412.8
2017-Oct-20 03:59N 55°15' E 012°48'612.5
2017-Oct-20 03:30N 55°18' E 012°39'511.0
2017-Oct-20 03:01N 55°23' E 012°39'612.2
2017-Oct-20 02:30N 55°29' E 012°42'5 9.3
2017-Oct-20 02:00N 55°33' E 012°47'5 9.1
2017-Oct-20 01:30N 55°36' E 012°52'5 9.1
2017-Oct-20 01:00N 55°40' E 012°56'612.2
2017-Oct-20 00:30N 55°45' E 012°50'611.5
2017-Oct-20 00:00N 55°50' E 012°45'611.6
2017-Oct-19 23:30N 55°56' E 012°43'611.7
2017-Oct-19 23:00N 56°02' E 012°39'4 9.0
2017-Oct-19 22:31N 56°05' E 012°35'4 8.3
2017-Oct-19 22:00N 56°08' E 012°29'4 6.8
2017-Oct-19 21:27N 56°10' E 012°23'7111.7
2017-Oct-19 15:21N 57°15' E 011°33'513.0
2017-Oct-19 15:00N 57°20' E 011°30'712.8
2017-Oct-19 14:29N 57°26' E 011°26'612.4
2017-Oct-19 14:00N 57°31' E 011°20'612.5
2017-Oct-19 13:29N 57°36' E 011°13'712.9
2017-Oct-19 12:59N 57°42' E 011°06'613.0
2017-Oct-19 12:30N 57°47' E 010°59'613.1
2017-Oct-19 12:00N 57°51' E 010°50'713.1
2017-Oct-19 11:30N 57°55' E 010°40'713.1
2017-Oct-19 11:00N 57°55' E 010°28'3513.2
2017-Oct-19 08:22N 57°48' E 009°23'513.4
2017-Oct-19 07:59N 57°47' E 009°14'713.5
2017-Oct-19 07:29N 57°43' E 009°03'  
2017-Oct-16 04:29N 55°48' W 006°59'612.0
2017-Oct-16 04:00N 55°43' W 006°53'612.1
2017-Oct-16 03:30N 55°38' W 006°48'612.8
2017-Oct-16 03:00N 55°34' W 006°39'713.9
2017-Oct-16 02:30N 55°30' W 006°28'714.9
2017-Oct-16 02:01N 55°27' W 006°17'815.3
2017-Oct-16 01:31N 55°25' W 006°04'816.3
2017-Oct-16 01:01N 55°18' W 005°55'816.3
2017-Oct-16 00:31N 55°11' W 005°49'815.8
2017-Oct-16 00:01N 55°04' W 005°43'1015.5
2017-Oct-15 23:24N 54°55' W 005°38'615.5
2017-Oct-15 23:01N 54°49' W 005°34'713.4
2017-Oct-15 22:30N 54°43' W 005°39'510.6
2017-Oct-15 22:00N 54°41' W 005°48'5 9.1
2017-Oct-15 21:27N 54°37' W 005°54'0 0.9
2017-Oct-15 20:59N 54°37' W 005°54'0 0.0
2017-Oct-15 20:08N 54°37' W 005°54'0 0.0
2017-Oct-15 19:59N 54°37' W 005°54'0 0.0
2017-Oct-15 19:14N 54°37' W 005°54'0 0.0
2017-Oct-15 18:05N 54°37' W 005°54'0 0.0
2017-Oct-15 17:17N 54°37' W 005°54'0 0.0
2017-Oct-15 16:47N 54°37' W 005°54'0 0.0
2017-Oct-15 16:23N 54°37' W 005°54'0 0.0
2017-Oct-15 15:59N 54°37' W 005°54'0 0.0
2017-Oct-15 15:29N 54°37' W 005°54'0 0.0
2017-Oct-15 14:47N 54°37' W 005°54'0 0.0
2017-Oct-15 13:59N 54°37' W 005°54'0 0.0
2017-Oct-15 13:17N 54°37' W 005°54'0 0.0
2017-Oct-15 12:59N 54°37' W 005°54'0 0.0
2017-Oct-15 12:05N 54°37' W 005°54'0 0.0
2017-Oct-15 11:59N 54°37' W 005°54'0 0.0
2017-Oct-15 11:29N 54°37' W 005°54'0 0.0
2017-Oct-15 10:53N 54°37' W 005°54'0 0.0
2017-Oct-15 10:23N 54°37' W 005°54'0 0.0
2017-Oct-15 09:35N 54°37' W 005°54'0 0.0
2017-Oct-15 09:29N 54°37' W 005°54'0 0.0
2017-Oct-15 08:11N 54°37' W 005°54'0 0.0
2017-Oct-15 07:56N 54°37' W 005°54'0 0.0
2017-Oct-15 06:44N 54°37' W 005°54'0 0.0
2017-Oct-15 06:29N 54°37' W 005°54'0 0.0
2017-Oct-15 05:23N 54°37' W 005°54'0 0.0
2017-Oct-15 04:53N 54°37' W 005°54'0 0.0
2017-Oct-15 04:29N 54°37' W 005°54'0 0.0
2017-Oct-15 02:23N 54°37' W 005°54'0 0.0
2017-Oct-15 01:53N 54°37' W 005°54'0 0.0
2017-Oct-14 23:17N 54°37' W 005°54'0 0.0
2017-Oct-14 22:47N 54°37' W 005°54'0 0.0
2017-Oct-14 21:47N 54°37' W 005°54'0 0.0
2017-Oct-14 21:20N 54°37' W 005°54'0 0.0
2017-Oct-14 17:05N 54°37' W 005°54'0 0.0
2017-Oct-14 06:47N 54°37' W 005°54'0 0.0
2017-Oct-14 06:29N 54°37' W 005°54'0 0.0
2017-Oct-14 04:05N 54°37' W 005°54'0 0.0
2017-Oct-14 03:59N 54°37' W 005°54'0 0.0
2017-Oct-13 15:23N 54°37' W 005°54'0 0.0
2017-Oct-13 13:08N 54°37' W 005°54'0 0.0
2017-Oct-13 12:38N 54°37' W 005°54'0 0.0
2017-Oct-13 12:02N 54°37' W 005°54'0 0.0
2017-Oct-13 11:32N 54°37' W 005°54'0 0.0
2017-Oct-13 08:17N 54°37' W 005°54'0 0.0
2017-Oct-13 06:11N 54°37' W 005°54'0 0.0
2017-Oct-13 04:35N 54°37' W 005°54'0 0.0
2017-Oct-13 04:08N 54°37' W 005°54'0 0.0
2017-Oct-13 03:47N 54°37' W 005°54'0 0.0
2017-Oct-13 03:17N 54°37' W 005°54'0 0.0
2017-Oct-13 02:41N 54°37' W 005°54'0 0.0
2017-Oct-13 02:23N 54°37' W 005°54'0 0.0
2017-Oct-12 22:08N 54°37' W 005°54'0 0.0
2017-Oct-12 21:11N 54°37' W 005°54'0 0.0
2017-Oct-12 20:05N 54°37' W 005°54'0 0.1
2017-Oct-12 19:59N 54°37' W 005°54'0 0.0
2017-Oct-12 16:05N 54°37' W 005°54'0 0.0
2017-Oct-12 10:08N 54°37' W 005°54'0 0.0
2017-Oct-11 23:11N 54°37' W 005°54'144 6.2
2017-Oct-11 00:00N 52°13' W 005°58'715.0
2017-Oct-10 23:30N 52°06' W 006°04'815.5
2017-Oct-10 23:00N 52°01' W 006°13'714.6
2017-Oct-10 22:30N 51°55' W 006°20'  

Dump ship's entire track history